Time;durP1;ratioP1;P1;durP2;ratioP2;P2;SDS_P1;SDS_P2;PMS_P1;PMS_P2;Temp;Humidity;BMP_temperature;BMP_pressure;BME280_temperature;BME280_humidity;BME280_pressure;Samples;Min_cycle;Max_cycle;Signal;HPM_P1;HPM_P2
2022/04/16 00:02:01;;;;;;;;;;;8.80;99.90;;;;;;5055027;28;19920;-74
2022/04/16 00:04:27;;;;;;;;;;;8.70;99.90;;;;;;5074149;28;19916;-74
2022/04/16 00:06:52;;;;;;;;;;;8.70;99.90;;;;;;5072774;28;20399;-74
2022/04/16 00:09:18;;;;;;;;;;;8.70;99.90;;;;;;5070621;28;19916;-75
2022/04/16 00:11:44;;;;;;;;;;;8.60;99.90;;;;;;5071920;28;19935;-75
2022/04/16 00:14:09;;;;;;;;;;;8.70;99.90;;;;;;5072522;28;19913;-74
2022/04/16 00:16:35;;;;;;;;;;;8.70;99.90;;;;;;5056170;28;20208;-76
2022/04/16 00:19:01;;;;;;;;;;;8.70;99.90;;;;;;5056033;28;19913;-74
2022/04/16 00:21:26;;;;;;;;;;;8.70;99.90;;;;;;5071515;28;20683;-74
2022/04/16 00:23:53;;;;;;;;;;;8.60;99.90;;;;;;5054426;28;19917;-74
2022/04/16 00:26:20;;;;;;;;;;;8.70;99.90;;;;;;5071250;28;20367;-75
2022/04/16 00:28:46;;;;;;;;;;;8.60;99.90;;;;;;5071131;28;20004;-75
2022/04/16 00:31:12;;;;;;;;;;;8.60;99.90;;;;;;5074079;28;20002;-74
2022/04/16 00:33:37;;;;;;;;;;;8.50;99.90;;;;;;5073786;28;19974;-78
2022/04/16 00:36:03;;;;;;;;;;;8.50;99.90;;;;;;5055815;28;20331;-74
2022/04/16 00:38:29;;;;;;;;;;;8.50;99.90;;;;;;5055524;28;20330;-74
2022/04/16 00:40:55;;;;;;;;;;;8.50;99.90;;;;;;5073353;28;19921;-75
2022/04/16 00:43:21;;;;;;;;;;;8.60;99.90;;;;;;5071409;28;19920;-75
2022/04/16 00:45:47;;;;;;;;;;;8.50;99.90;;;;;;5055769;28;20239;-75
2022/04/16 00:48:13;;;;;;;;;;;8.60;99.90;;;;;;5073834;28;19912;-74
2022/04/16 00:50:39;;;;;;;;;;;8.60;99.90;;;;;;5077187;28;19924;-77
2022/04/16 00:53:05;;;;;;;;;;;8.60;99.90;;;;;;5075144;28;20370;-75
2022/04/16 00:55:31;;;;;;;;;;;8.60;99.90;;;;;;5058026;28;19919;-74
2022/04/16 00:58:00;;;;;;;;;;;8.60;99.90;;;;;;5075402;28;21506;-75
2022/04/16 01:00:25;;;;;;;;;;;8.60;99.90;;;;;;5077120;28;19920;-75
2022/04/16 01:02:51;;;;;;;;;;;8.60;99.90;;;;;;5076708;28;19920;-74
2022/04/16 01:05:19;;;;;;;;;;;8.60;99.90;;;;;;5075919;28;20413;-75
2022/04/16 01:07:57;;;;;;;;;;;8.60;99.90;;;;;;5075250;28;20366;-75
2022/04/16 01:10:27;;;;;;;;;;;8.60;99.90;;;;;;5054177;28;19928;-75
2022/04/16 01:12:53;;;;;;;;;;;8.60;99.90;;;;;;5054853;28;20201;-74
2022/04/16 01:15:20;;;;;;;;;;;8.60;99.90;;;;;;5056738;28;19913;-75
2022/04/16 01:17:50;;;;;;;;;;;8.60;99.90;;;;;;5055726;28;19916;-75
2022/04/16 01:20:16;;;;;;;;;;;8.60;99.90;;;;;;5054737;28;19991;-75
2022/04/16 01:22:42;;;;;;;;;;;8.60;99.90;;;;;;5055297;28;20287;-76
2022/04/16 01:25:08;;;;;;;;;;;8.60;99.90;;;;;;5056336;28;19971;-75
2022/04/16 01:27:43;;;;;;;;;;;8.60;99.90;;;;;;5056094;28;19964;-74
2022/04/16 01:30:09;;;;;;;;;;;8.50;99.90;;;;;;5054234;28;19925;-76
2022/04/16 01:32:34;;;;;;;;;;;8.60;99.90;;;;;;5055534;28;20015;-74
2022/04/16 01:35:00;;;;;;;;;;;8.60;99.90;;;;;;5055641;28;19999;-75
2022/04/16 01:37:31;;;;;;;;;;;8.60;99.90;;;;;;5054986;28;20008;-74
2022/04/16 01:39:58;;;;;;;;;;;8.60;99.90;;;;;;5055188;28;19943;-75
2022/04/16 01:42:23;;;;;;;;;;;8.60;99.90;;;;;;5056441;28;19913;-74
2022/04/16 01:44:49;;;;;;;;;;;8.50;99.90;;;;;;5054904;28;20286;-74
2022/04/16 01:47:15;;;;;;;;;;;8.50;99.90;;;;;;5052767;28;19913;-75
2022/04/16 01:49:41;;;;;;;;;;;8.50;99.90;;;;;;5053161;28;19923;-74
2022/04/16 01:52:07;;;;;;;;;;;8.50;99.90;;;;;;5055514;28;19921;-74
2022/04/16 01:54:33;;;;;;;;;;;8.50;99.90;;;;;;5055012;28;20189;-74
2022/04/16 01:56:59;;;;;;;;;;;8.50;99.90;;;;;;5053916;28;19920;-75
2022/04/16 01:59:25;;;;;;;;;;;8.40;99.90;;;;;;5053695;28;19913;-74
2022/04/16 02:01:50;;;;;;;;;;;8.30;99.90;;;;;;5055844;28;19936;-74
2022/04/16 02:04:17;;;;;;;;;;;8.20;99.90;;;;;;5056071;28;19916;-74
2022/04/16 02:06:42;;;;;;;;;;;8.20;99.90;;;;;;5054847;28;19917;-74
2022/04/16 02:09:08;;;;;;;;;;;8.00;99.90;;;;;;5054655;28;19983;-74
2022/04/16 02:11:34;;;;;;;;;;;7.90;99.90;;;;;;5071114;28;19964;-75
2022/04/16 02:13:59;;;;;;;;;;;7.80;99.90;;;;;;5075740;28;20377;-77
2022/04/16 02:16:25;;;;;;;;;;;7.70;99.90;;;;;;5074623;28;19952;-75
2022/04/16 02:18:51;;;;;;;;;;;7.60;99.90;;;;;;5075883;28;20303;-74
2022/04/16 02:21:19;;;;;;;;;;;7.50;99.90;;;;;;5074585;28;19923;-74
2022/04/16 02:23:45;;;;;;;;;;;7.40;99.90;;;;;;5075517;28;19916;-74
2022/04/16 02:26:11;;;;;;;;;;;7.30;99.90;;;;;;5057055;28;19957;-74
2022/04/16 02:28:36;;;;;;;;;;;7.20;99.90;;;;;;5074417;28;20109;-75
2022/04/16 02:31:02;;;;;;;;;;;7.10;99.90;;;;;;5074165;28;19916;-77
2022/04/16 02:33:28;;;;;;;;;;;7.10;99.90;;;;;;5075705;28;19920;-75
2022/04/16 02:35:53;;;;;;;;;;;7.10;99.90;;;;;;5075326;28;19917;-75
2022/04/16 02:38:19;;;;;;;;;;;7.10;99.90;;;;;;5074078;28;19936;-75
2022/04/16 02:40:46;;;;;;;;;;;7.00;99.90;;;;;;5056505;28;19943;-75
2022/04/16 02:43:11;;;;;;;;;;;6.90;99.90;;;;;;5057732;28;19912;-75
2022/04/16 02:48:21;;;;;;;;;;;6.80;99.90;;;;;;5074618;28;19935;-75
2022/04/16 02:50:47;;;;;;;;;;;6.80;99.90;;;;;;5057248;28;20307;-74
2022/04/16 02:53:12;;;;;;;;;;;6.70;99.90;;;;;;5074790;28;19923;-74
2022/04/16 02:55:38;;;;;;;;;;;6.70;99.90;;;;;;5056090;28;19920;-74
2022/04/16 02:58:03;;;;;;;;;;;6.60;99.90;;;;;;5039355;28;19916;-74
2022/04/16 03:00:29;;;;;;;;;;;6.60;99.90;;;;;;5074077;28;19923;-74
2022/04/16 03:02:54;;;;;;;;;;;6.50;99.90;;;;;;5074682;28;20370;-74
2022/04/16 03:05:20;;;;;;;;;;;6.50;99.90;;;;;;5074803;28;19912;-75
2022/04/16 03:07:45;;;;;;;;;;;6.50;99.90;;;;;;5073433;28;19919;-75
2022/04/16 03:10:11;;;;;;;;;;;6.50;99.90;;;;;;5073310;28;19930;-74
2022/04/16 03:12:47;;;;;;;;;;;6.50;99.90;;;;;;5074558;28;20281;-77
2022/04/16 03:18:07;;;;;;;;;;;6.50;99.90;;;;;;5058501;28;19913;-74
2022/04/16 03:20:32;;;;;;;;;;;6.50;99.90;;;;;;5073017;28;20373;-74
2022/04/16 03:22:58;;;;;;;;;;;6.40;99.90;;;;;;5073468;28;19920;-75
2022/04/16 03:25:24;;;;;;;;;;;6.40;99.90;;;;;;5074468;28;20349;-75
2022/04/16 03:27:50;;;;;;;;;;;6.40;99.90;;;;;;5055913;28;19917;-74
2022/04/16 03:30:16;;;;;;;;;;;6.40;99.90;;;;;;5071341;28;19916;-74
2022/04/16 03:32:42;;;;;;;;;;;6.40;99.90;;;;;;5073200;28;19999;-74
2022/04/16 03:35:08;;;;;;;;;;;6.30;99.90;;;;;;5074040;28;20230;-74
2022/04/16 03:37:34;;;;;;;;;;;6.20;99.90;;;;;;5070602;28;19920;-74
2022/04/16 03:40:00;;;;;;;;;;;6.10;99.90;;;;;;5073045;28;19961;-74
2022/04/16 03:42:26;;;;;;;;;;;6.10;99.90;;;;;;5072970;28;20261;-74
2022/04/16 03:44:51;;;;;;;;;;;6.10;99.90;;;;;;5070281;28;19919;-73
2022/04/16 03:47:17;;;;;;;;;;;6.20;99.90;;;;;;5054805;28;19916;-74
2022/04/16 03:49:43;;;;;;;;;;;6.30;99.90;;;;;;5072246;28;20315;-74
2022/04/16 03:52:08;;;;;;;;;;;6.40;99.90;;;;;;5073323;28;19935;-76
2022/04/16 04:00:05;;;;;;;;;;;6.40;99.90;;;;;;5073169;28;19920;-74
2022/04/16 04:02:36;;;;;;;;;;;6.50;99.90;;;;;;5074043;28;20003;-75
2022/04/16 04:05:02;;;;;;;;;;;6.60;99.90;;;;;;5072689;28;19920;-77
2022/04/16 04:07:28;;;;;;;;;;;6.60;99.90;;;;;;5056120;28;20368;-74
2022/04/16 04:09:53;;;;;;;;;;;6.70;99.90;;;;;;5073618;28;19923;-74
2022/04/16 04:12:19;;;;;;;;;;;6.70;99.90;;;;;;5055961;28;19927;-74
2022/04/16 04:14:45;;;;;;;;;;;6.70;99.90;;;;;;5055805;28;19965;-74
2022/04/16 04:17:11;;;;;;;;;;;6.60;99.90;;;;;;5071939;28;19912;-74
2022/04/16 04:19:44;;;;;;;;;;;6.60;99.90;;;;;;5055529;28;19920;-75
2022/04/16 04:22:10;;;;;;;;;;;6.60;99.90;;;;;;5071925;28;20034;-74
2022/04/16 04:24:37;;;;;;;;;;;6.50;99.90;;;;;;5059284;28;20265;-74
2022/04/16 04:27:03;;;;;;;;;;;6.40;99.90;;;;;;5076645;28;19924;-75
2022/04/16 04:29:28;;;;;;;;;;;6.40;99.90;;;;;;5059295;28;19970;-75
2022/04/16 04:31:54;;;;;;;;;;;6.40;99.90;;;;;;5076994;28;20430;-75
2022/04/16 04:34:20;;;;;;;;;;;6.40;99.90;;;;;;5076868;28;20253;-74
2022/04/16 04:36:45;;;;;;;;;;;6.40;99.90;;;;;;5075058;28;20504;-74
2022/04/16 04:39:12;;;;;;;;;;;6.40;99.90;;;;;;5076555;28;19946;-76
2022/04/16 04:41:38;;;;;;;;;;;6.40;99.90;;;;;;5058902;28;19978;-74
2022/04/16 04:44:04;;;;;;;;;;;6.50;99.90;;;;;;5058365;28;19920;-74
2022/04/16 04:46:30;;;;;;;;;;;6.50;99.90;;;;;;5073042;28;19916;-75
2022/04/16 04:48:55;;;;;;;;;;;6.40;99.90;;;;;;5069623;28;19916;-75
2022/04/16 04:51:21;;;;;;;;;;;6.40;99.90;;;;;;5076452;28;19952;-74
2022/04/16 04:53:46;;;;;;;;;;;6.50;99.90;;;;;;5075979;28;20435;-74
2022/04/16 04:56:12;;;;;;;;;;;6.50;99.90;;;;;;5075446;28;20306;-76
2022/04/16 04:58:38;;;;;;;;;;;6.50;99.90;;;;;;5075997;28;19912;-75
2022/04/16 05:01:04;;;;;;;;;;;6.50;99.90;;;;;;5076020;28;19963;-75
2022/04/16 05:03:29;;;;;;;;;;;6.50;99.90;;;;;;5058059;28;19924;-74
2022/04/16 05:05:55;;;;;;;;;;;6.50;99.90;;;;;;5076378;28;19912;-76
2022/04/16 05:08:20;;;;;;;;;;;6.60;99.90;;;;;;5074742;28;19916;-74
2022/04/16 05:10:46;;;;;;;;;;;6.60;99.90;;;;;;5057090;28;19939;-74
2022/04/16 05:13:11;;;;;;;;;;;6.70;99.90;;;;;;5058858;28;19917;-74
2022/04/16 05:15:37;;;;;;;;;;;6.80;99.90;;;;;;5058956;28;19924;-74
2022/04/16 05:18:02;;;;;;;;;;;6.80;99.90;;;;;;5076480;28;19920;-75
2022/04/16 05:20:28;;;;;;;;;;;6.90;99.90;;;;;;5059099;28;19912;-74
2022/04/16 05:22:54;;;;;;;;;;;7.00;99.90;;;;;;5075488;28;19916;-76
2022/04/16 05:25:19;;;;;;;;;;;7.00;99.90;;;;;;5075918;28;19912;-74
2022/04/16 05:27:46;;;;;;;;;;;7.00;99.90;;;;;;5058520;28;19917;-74
2022/04/16 05:30:13;;;;;;;;;;;7.10;99.90;;;;;;5056653;28;20306;-75
2022/04/16 05:32:40;;;;;;;;;;;7.20;99.90;;;;;;5073627;28;19993;-75
2022/04/16 05:35:06;;;;;;;;;;;7.30;99.90;;;;;;5073898;28;19935;-74
2022/04/16 05:37:32;;;;;;;;;;;7.30;99.90;;;;;;5075393;28;19913;-74
2022/04/16 05:39:58;;;;;;;;;;;7.30;99.90;;;;;;5074578;28;19916;-76
2022/04/16 05:42:24;;;;;;;;;;;7.40;99.90;;;;;;5058138;28;19912;-75
2022/04/16 05:44:49;;;;;;;;;;;7.40;99.90;;;;;;5058203;28;19971;-74
2022/04/16 05:47:15;;;;;;;;;;;7.50;99.90;;;;;;5075343;28;19970;-74
2022/04/16 05:49:40;;;;;;;;;;;7.50;99.90;;;;;;5058483;28;19959;-76
2022/04/16 05:52:06;;;;;;;;;;;7.60;99.90;;;;;;5075520;28;19919;-75
2022/04/16 05:54:33;;;;;;;;;;;7.60;99.90;;;;;;5074372;28;20003;-74
2022/04/16 05:56:58;;;;;;;;;;;7.70;99.90;;;;;;5057928;28;19919;-74
2022/04/16 05:59:24;;;;;;;;;;;7.70;99.90;;;;;;5057609;28;19916;-75
2022/04/16 06:01:50;;;;;;;;;;;7.80;99.90;;;;;;5074587;28;19920;-75
2022/04/16 06:04:15;;;;;;;;;;;7.80;99.90;;;;;;5056562;28;19943;-74
2022/04/16 06:06:41;;;;;;;;;;;7.80;99.90;;;;;;5074832;28;19916;-75
2022/04/16 06:09:07;;;;;;;;;;;7.90;99.90;;;;;;5074118;28;20370;-75
2022/04/16 06:11:32;;;;;;;;;;;8.00;99.90;;;;;;5073121;28;19966;-75
2022/04/16 06:13:58;;;;;;;;;;;8.10;99.90;;;;;;5074723;28;20021;-75
2022/04/16 06:16:23;;;;;;;;;;;8.20;99.90;;;;;;5073893;28;20219;-77
2022/04/16 06:18:49;;;;;;;;;;;8.20;99.90;;;;;;5057017;28;19912;-75
2022/04/16 06:21:15;;;;;;;;;;;8.30;99.90;;;;;;5056544;28;19920;-74
2022/04/16 06:23:41;;;;;;;;;;;8.30;99.90;;;;;;5074157;28;20226;-74
2022/04/16 06:26:06;;;;;;;;;;;8.40;99.90;;;;;;5055254;28;19912;-74
2022/04/16 06:28:35;;;;;;;;;;;8.30;99.90;;;;;;5058717;28;20265;-75
2022/04/16 06:31:01;;;;;;;;;;;8.40;99.90;;;;;;5072331;28;20260;-75
2022/04/16 06:33:26;;;;;;;;;;;8.40;99.90;;;;;;5071057;28;19917;-75
2022/04/16 06:35:52;;;;;;;;;;;8.40;99.90;;;;;;5076040;28;20302;-74
2022/04/16 06:38:17;;;;;;;;;;;8.40;99.90;;;;;;5057163;28;20308;-75
2022/04/16 06:40:43;;;;;;;;;;;8.40;99.90;;;;;;5075371;28;19963;-76
2022/04/16 06:43:08;;;;;;;;;;;8.30;99.90;;;;;;5068630;28;20254;-75
2022/04/16 06:45:34;;;;;;;;;;;8.20;99.90;;;;;;5072657;28;20546;-75
2022/04/16 06:48:00;;;;;;;;;;;8.40;99.90;;;;;;5056619;28;19955;-74
2022/04/16 06:50:26;;;;;;;;;;;8.40;99.90;;;;;;5055497;28;19962;-76
2022/04/16 06:52:55;;;;;;;;;;;8.50;99.90;;;;;;5054572;28;20299;-74
2022/04/16 06:55:20;;;;;;;;;;;8.60;99.90;;;;;;5073086;28;19916;-75
2022/04/16 06:57:46;;;;;;;;;;;8.70;99.90;;;;;;5056280;28;19919;-75
2022/04/16 07:00:11;;;;;;;;;;;8.80;99.90;;;;;;5040463;28;19916;-75
2022/04/16 07:02:39;;;;;;;;;;;8.80;99.90;;;;;;5072739;28;20311;-75
2022/04/16 07:05:05;;;;;;;;;;;8.90;99.90;;;;;;5054341;28;20265;-75
2022/04/16 07:07:31;;;;;;;;;;;9.10;99.90;;;;;;5073556;28;19919;-77
2022/04/16 07:09:56;;;;;;;;;;;9.40;99.90;;;;;;5073235;28;19920;-76
2022/04/16 07:12:22;;;;;;;;;;;9.70;99.90;;;;;;5071248;28;19921;-75
2022/04/16 07:14:48;;;;;;;;;;;9.80;99.90;;;;;;5073551;28;20277;-76
2022/04/16 07:17:13;;;;;;;;;;;10.00;99.90;;;;;;5074086;28;19913;-75
2022/04/16 07:19:39;;;;;;;;;;;10.20;99.90;;;;;;5075539;28;20000;-75
2022/04/16 07:22:05;;;;;;;;;;;10.50;99.90;;;;;;5054654;28;19917;-76
2022/04/16 07:24:30;;;;;;;;;;;10.50;99.90;;;;;;5072708;28;19916;-75
2022/04/16 07:26:56;;;;;;;;;;;10.60;99.90;;;;;;5073251;28;19993;-75
2022/04/16 07:29:22;;;;;;;;;;;10.70;99.90;;;;;;5055311;28;19934;-76
2022/04/16 07:31:47;;;;;;;;;;;10.90;99.90;;;;;;5056315;28;19922;-76
2022/04/16 07:34:13;;;;;;;;;;;11.00;99.90;;;;;;5069465;28;19919;-76
2022/04/16 07:36:39;;;;;;;;;;;11.20;99.90;;;;;;5056325;28;19913;-74
2022/04/16 07:39:05;;;;;;;;;;;11.30;99.90;;;;;;5050859;28;19952;-75
2022/04/16 07:41:30;;;;;;;;;;;11.30;99.90;;;;;;5071698;28;19962;-75
2022/04/16 07:44:02;;;;;;;;;;;11.60;99.90;;;;;;5054422;28;19917;-76
2022/04/16 07:46:28;;;;;;;;;;;11.60;99.90;;;;;;5072567;28;19924;-76
2022/04/16 07:48:54;;;;;;;;;;;11.50;99.90;;;;;;5073916;28;19924;-76
2022/04/16 07:51:19;;;;;;;;;;;11.70;99.90;;;;;;5074616;28;20300;-75
2022/04/16 07:53:45;;;;;;;;;;;11.90;99.90;;;;;;5073008;28;19936;-75
2022/04/16 07:56:10;;;;;;;;;;;12.00;99.90;;;;;;5054890;28;19959;-76
2022/04/16 07:58:36;;;;;;;;;;;12.10;99.90;;;;;;5054592;28;19916;-75
2022/04/16 08:01:01;;;;;;;;;;;12.20;99.90;;;;;;5072835;28;19912;-76
2022/04/16 08:03:27;;;;;;;;;;;12.60;99.90;;;;;;5072569;28;20234;-76
2022/04/16 08:05:52;;;;;;;;;;;12.80;99.90;;;;;;5067236;28;19921;-76
2022/04/16 08:08:18;;;;;;;;;;;12.90;99.90;;;;;;5071241;28;19931;-76
2022/04/16 08:10:43;;;;;;;;;;;12.80;99.90;;;;;;5064789;28;19920;-76
2022/04/16 08:13:09;;;;;;;;;;;13.10;99.90;;;;;;5068603;28;19909;-75
2022/04/16 08:15:35;;;;;;;;;;;13.20;99.90;;;;;;5071663;28;19913;-76
2022/04/16 08:18:01;;;;;;;;;;;13.20;99.90;;;;;;5052571;28;20277;-77
2022/04/16 08:20:48;;;;;;;;;;;13.30;99.90;;;;;;5066959;28;19913;-75
2022/04/16 08:23:14;;;;;;;;;;;13.40;99.90;;;;;;5071366;28;19977;-75
2022/04/16 08:28:06;;;;;;;;;;;13.40;99.90;;;;;;5071478;28;19919;-75
2022/04/16 08:30:32;;;;;;;;;;;13.50;99.90;;;;;;5072121;28;19924;-75
2022/04/16 08:32:58;;;;;;;;;;;13.80;99.90;;;;;;5051482;28;19923;-75
2022/04/16 08:35:23;;;;;;;;;;;13.90;99.90;;;;;;5054950;28;20220;-76
2022/04/16 08:37:49;;;;;;;;;;;13.40;99.90;;;;;;5053420;28;19951;-75
2022/04/16 08:40:16;;;;;;;;;;;13.80;99.90;;;;;;5074260;28;19948;-75
2022/04/16 08:42:51;;;;;;;;;;;13.80;99.90;;;;;;5074639;28;19912;-75
2022/04/16 08:45:17;;;;;;;;;;;13.90;99.90;;;;;;5075230;28;20314;-77
2022/04/16 08:47:43;;;;;;;;;;;14.20;99.90;;;;;;5074103;28;19917;-75
2022/04/16 08:50:09;;;;;;;;;;;14.10;99.90;;;;;;5056849;28;20314;-77
2022/04/16 08:52:37;;;;;;;;;;;14.10;99.90;;;;;;5056655;28;20269;-76
2022/04/16 08:55:04;;;;;;;;;;;14.50;99.90;;;;;;5055446;28;20264;-76
2022/04/16 08:57:29;;;;;;;;;;;14.60;99.90;;;;;;5066151;28;19920;-76
2022/04/16 08:59:57;;;;;;;;;;;14.70;99.90;;;;;;5068450;28;20034;-76
2022/04/16 09:02:23;;;;;;;;;;;14.50;99.90;;;;;;5072967;28;19923;-76
2022/04/16 09:04:49;;;;;;;;;;;14.50;99.90;;;;;;5055057;28;19912;-76
2022/04/16 09:07:15;;;;;;;;;;;14.70;99.90;;;;;;5074105;28;19978;-75
2022/04/16 09:09:41;;;;;;;;;;;14.90;99.90;;;;;;5058540;28;20319;-76
2022/04/16 09:12:19;;;;;;;;;;;14.70;99.90;;;;;;5056453;28;19971;-76
2022/04/16 09:14:45;;;;;;;;;;;14.60;99.90;;;;;;5075419;28;19999;-75
2022/04/16 09:17:15;;;;;;;;;;;14.80;99.90;;;;;;5071945;28;20369;-75
2022/04/16 09:19:40;;;;;;;;;;;15.00;99.90;;;;;;5078497;28;19908;-76
2022/04/16 09:22:08;;;;;;;;;;;15.00;99.90;;;;;;5052535;28;19913;-76
2022/04/16 09:24:46;;;;;;;;;;;15.30;99.90;;;;;;5074781;28;20211;-76
2022/04/16 09:27:11;;;;;;;;;;;15.30;99.90;;;;;;5067544;28;19912;-75
2022/04/16 09:29:37;;;;;;;;;;;15.30;99.90;;;;;;5060053;28;19916;-76
2022/04/16 09:32:03;;;;;;;;;;;15.60;99.90;;;;;;5078373;28;19912;-75
2022/04/16 09:34:28;;;;;;;;;;;15.50;99.90;;;;;;5073126;28;20420;-75
2022/04/16 09:36:54;;;;;;;;;;;15.40;99.90;;;;;;5069634;28;19908;-77
2022/04/16 09:39:25;;;;;;;;;;;15.70;99.90;;;;;;5077440;28;20349;-75
2022/04/16 09:41:54;;;;;;;;;;;15.50;99.90;;;;;;5077276;28;19916;-75
2022/04/16 09:44:25;;;;;;;;;;;15.00;99.90;;;;;;5076506;28;19958;-76
2022/04/16 09:46:52;;;;;;;;;;;14.90;99.90;;;;;;5063308;28;19913;-75
2022/04/16 09:49:18;;;;;;;;;;;14.50;99.90;;;;;;5060150;28;20204;-75
2022/04/16 09:51:45;;;;;;;;;;;14.30;99.90;;;;;;5077068;28;19915;-75
2022/04/16 09:54:11;;;;;;;;;;;14.40;99.90;;;;;;5077164;28;19957;-75
2022/04/16 09:56:38;;;;;;;;;;;14.70;99.90;;;;;;5077494;28;19991;-75
2022/04/16 09:59:08;;;;;;;;;;;15.20;99.90;;;;;;5077683;28;19914;-75
2022/04/16 10:01:34;;;;;;;;;;;14.90;99.90;;;;;;5073609;28;19959;-75
2022/04/16 10:04:03;;;;;;;;;;;14.60;99.90;;;;;;5056363;28;19951;-76
2022/04/16 10:06:29;;;;;;;;;;;15.00;99.90;;;;;;5076382;28;20023;-75
2022/04/16 10:08:57;;;;;;;;;;;14.80;99.90;;;;;;5074344;28;20149;-75
2022/04/16 10:14:22;;;;;;;;;;;14.80;99.90;;;;;;5026274;28;19944;-74
2022/04/16 10:16:56;;;;;;;;;;;15.10;99.90;;;;;;5074807;28;19917;-75
2022/04/16 10:19:22;;;;;;;;;;;15.30;99.90;;;;;;5077155;28;20011;-75
2022/04/16 10:21:52;;;;;;;;;;;15.40;99.90;;;;;;5055508;28;20314;-75
2022/04/16 10:24:23;;;;;;;;;;;15.30;99.90;;;;;;5074615;28;19916;-76
2022/04/16 10:26:49;;;;;;;;;;;15.40;99.90;;;;;;5074397;28;19962;-76
2022/04/16 10:29:18;;;;;;;;;;;15.60;99.90;;;;;;5070895;28;19960;-77
2022/04/16 10:31:50;;;;;;;;;;;15.60;99.90;;;;;;5070541;28;19924;-76
2022/04/16 10:34:19;;;;;;;;;;;15.60;99.90;;;;;;5069006;28;19916;-76
2022/04/16 10:36:47;;;;;;;;;;;15.70;99.90;;;;;;5072397;28;19920;-76
2022/04/16 10:39:14;;;;;;;;;;;16.10;99.90;;;;;;5068392;28;20383;-75
2022/04/16 10:41:39;;;;;;;;;;;15.80;99.90;;;;;;5036156;28;20011;-76
2022/04/16 10:44:08;;;;;;;;;;;15.50;99.90;;;;;;5065732;28;20035;-77
2022/04/16 10:46:46;;;;;;;;;;;15.30;99.90;;;;;;5067681;28;19938;-75
2022/04/16 10:49:15;;;;;;;;;;;15.40;99.90;;;;;;5068634;28;20031;-76
2022/04/16 10:51:41;;;;;;;;;;;15.50;99.90;;;;;;5073205;28;19947;-75
2022/04/16 10:54:10;;;;;;;;;;;16.00;99.90;;;;;;5054981;28;19916;-78
2022/04/16 10:56:42;;;;;;;;;;;16.20;99.90;;;;;;5072243;28;19912;-75
2022/04/16 10:59:08;;;;;;;;;;;16.10;99.90;;;;;;5056601;28;20319;-77
2022/04/16 11:01:34;;;;;;;;;;;16.20;99.90;;;;;;5072676;28;19913;-75
2022/04/16 11:04:10;;;;;;;;;;;15.90;99.90;;;;;;5054245;28;20003;-76
2022/04/16 11:06:36;;;;;;;;;;;16.20;99.90;;;;;;5051723;28;19916;-76
2022/04/16 11:09:02;;;;;;;;;;;16.20;99.90;;;;;;5072019;28;19920;-74
2022/04/16 11:11:27;;;;;;;;;;;16.40;99.90;;;;;;5071498;28;19924;-75
2022/04/16 11:13:53;;;;;;;;;;;16.00;99.90;;;;;;5072673;28;20295;-80
2022/04/16 11:16:24;;;;;;;;;;;15.80;99.40;;;;;;5072403;28;20296;-76
2022/04/16 11:18:50;;;;;;;;;;;15.50;99.90;;;;;;5071914;28;19926;-75
2022/04/16 11:21:22;;;;;;;;;;;15.40;99.90;;;;;;5072619;28;19913;-77
2022/04/16 11:23:48;;;;;;;;;;;15.50;99.90;;;;;;5072679;28;20222;-74
2022/04/16 11:34:43;;;;;;;;;;;16.50;98.90;;;;;;5073145;28;19916;-76
2022/04/16 11:37:09;;;;;;;;;;;16.20;99.90;;;;;;5071357;28;19913;-75
2022/04/16 11:39:35;;;;;;;;;;;16.00;99.70;;;;;;5054528;28;19921;-76
2022/04/16 11:42:04;;;;;;;;;;;16.20;99.90;;;;;;5072356;28;19912;-74
2022/04/16 11:44:31;;;;;;;;;;;16.50;99.90;;;;;;5072540;28;19916;-75
2022/04/16 11:46:57;;;;;;;;;;;16.30;99.90;;;;;;5072334;28;19916;-74
2022/04/16 11:49:22;;;;;;;;;;;16.40;98.50;;;;;;5053402;28;19966;-76
2022/04/16 11:51:49;;;;;;;;;;;16.40;99.20;;;;;;5070693;28;19917;-75
2022/04/16 11:54:25;;;;;;;;;;;16.20;98.70;;;;;;5071901;28;19927;-75
2022/04/16 11:56:50;;;;;;;;;;;16.40;99.90;;;;;;5071265;28;20295;-76
2022/04/16 11:59:22;;;;;;;;;;;16.40;99.80;;;;;;5036402;28;19917;-77
2022/04/16 12:01:55;;;;;;;;;;;16.80;97.20;;;;;;5072871;28;19916;-74
2022/04/16 12:04:20;;;;;;;;;;;17.10;97.80;;;;;;5067654;28;19916;-75
2022/04/16 12:06:46;;;;;;;;;;;17.10;96.80;;;;;;5055745;28;19917;-76
2022/04/16 12:09:11;;;;;;;;;;;17.30;95.90;;;;;;5072704;28;20529;-75
2022/04/16 12:11:37;;;;;;;;;;;17.50;96.50;;;;;;5065704;28;20212;-76
2022/04/16 12:14:02;;;;;;;;;;;17.50;95.80;;;;;;5040101;28;20049;-76
2022/04/16 12:16:36;;;;;;;;;;;17.50;96.00;;;;;;5073681;28;20251;-75
2022/04/16 12:19:02;;;;;;;;;;;17.20;96.60;;;;;;5053265;28;19908;-76
2022/04/16 12:21:27;;;;;;;;;;;17.30;95.30;;;;;;5070471;28;20313;-75
2022/04/16 12:24:03;;;;;;;;;;;17.40;95.90;;;;;;5074721;28;19908;-77
2022/04/16 12:26:29;;;;;;;;;;;17.50;95.70;;;;;;5072516;28;19916;-76
2022/04/16 12:28:56;;;;;;;;;;;17.50;94.00;;;;;;5073697;28;20180;-79
2022/04/16 12:31:29;;;;;;;;;;;17.10;96.40;;;;;;5064202;28;19979;-75
2022/04/16 12:33:55;;;;;;;;;;;17.20;96.10;;;;;;5073027;28;19924;-77
2022/04/16 12:36:20;;;;;;;;;;;16.90;96.50;;;;;;5072811;28;19912;-76
2022/04/16 12:38:46;;;;;;;;;;;17.10;94.90;;;;;;5051749;28;19913;-75
2022/04/16 12:41:12;;;;;;;;;;;17.10;97.80;;;;;;5055957;28;19916;-75
2022/04/16 12:43:37;;;;;;;;;;;16.70;95.40;;;;;;5068280;28;19924;-76
2022/04/16 12:46:03;;;;;;;;;;;16.90;95.50;;;;;;5074698;28;19912;-75
2022/04/16 12:48:29;;;;;;;;;;;16.90;98.00;;;;;;5077860;28;19917;-76
2022/04/16 12:50:54;;;;;;;;;;;16.80;97.40;;;;;;5076840;28;20315;-75
2022/04/16 12:53:20;;;;;;;;;;;16.70;95.80;;;;;;5078617;28;19936;-77
2022/04/16 12:55:46;;;;;;;;;;;16.70;98.20;;;;;;5072502;28;19923;-75
2022/04/16 12:58:12;;;;;;;;;;;16.60;98.50;;;;;;5086373;28;19916;-75
2022/04/16 13:00:37;;;;;;;;;;;16.90;98.30;;;;;;5073319;28;19970;-74
2022/04/16 13:03:03;;;;;;;;;;;16.60;95.80;;;;;;5058485;28;20254;-75
2022/04/16 13:05:29;;;;;;;;;;;16.40;96.20;;;;;;5069939;28;20311;-75
2022/04/16 13:07:58;;;;;;;;;;;16.40;96.80;;;;;;5078375;28;19921;-74
2022/04/16 13:10:23;;;;;;;;;;;16.10;96.80;;;;;;5057869;28;20319;-76
2022/04/16 13:12:49;;;;;;;;;;;16.30;97.30;;;;;;5075961;28;19920;-74
2022/04/16 13:15:14;;;;;;;;;;;16.40;96.10;;;;;;5077217;28;20200;-75
2022/04/16 13:17:40;;;;;;;;;;;16.40;97.60;;;;;;5057753;28;19962;-75
2022/04/16 13:20:08;;;;;;;;;;;16.70;95.60;;;;;;5076226;28;19912;-75
2022/04/16 13:22:34;;;;;;;;;;;17.10;96.30;;;;;;5057478;28;20007;-75
2022/04/16 13:24:59;;;;;;;;;;;17.40;95.80;;;;;;5076915;28;20011;-74
2022/04/16 13:27:25;;;;;;;;;;;17.20;95.70;;;;;;5058543;28;19951;-75
2022/04/16 13:29:50;;;;;;;;;;;16.90;96.90;;;;;;5075303;28;20006;-79
2022/04/16 13:32:16;;;;;;;;;;;16.60;94.50;;;;;;5077073;28;19912;-74
2022/04/16 13:34:43;;;;;;;;;;;16.70;96.50;;;;;;5076609;28;19948;-76
2022/04/16 13:37:15;;;;;;;;;;;16.70;97.40;;;;;;5057671;28;20311;-75
2022/04/16 13:42:24;;;;;;;;;;;16.80;94.60;;;;;;5077827;28;19919;-79
2022/04/16 13:44:50;;;;;;;;;;;16.90;95.80;;;;;;5075136;28;20214;-75
2022/04/16 13:47:20;;;;;;;;;;;16.90;94.40;;;;;;5076169;28;20351;-75
2022/04/16 13:49:46;;;;;;;;;;;16.60;94.20;;;;;;5075234;28;19920;-75
2022/04/16 13:52:12;;;;;;;;;;;16.30;96.90;;;;;;5077276;28;19923;-75
2022/04/16 13:54:37;;;;;;;;;;;16.20;94.50;;;;;;5072695;28;19924;-74
2022/04/16 13:57:03;;;;;;;;;;;16.40;95.20;;;;;;5074457;28;19916;-75
2022/04/16 13:59:29;;;;;;;;;;;16.50;95.10;;;;;;5078099;28;19963;-75
2022/04/16 14:01:58;;;;;;;;;;;16.70;94.60;;;;;;5059946;28;19917;-74
2022/04/16 14:04:23;;;;;;;;;;;16.70;94.60;;;;;;5071388;28;19915;-75
2022/04/16 14:06:49;;;;;;;;;;;16.70;94.60;;;;;;5040034;28;19988;-75
2022/04/16 14:09:14;;;;;;;;;;;16.60;95.00;;;;;;5060007;28;20318;-75
2022/04/16 14:11:41;;;;;;;;;;;16.50;93.90;;;;;;5083528;28;20344;-74
2022/04/16 14:14:08;;;;;;;;;;;16.40;95.60;;;;;;5079766;28;19923;-75
2022/04/16 14:16:34;;;;;;;;;;;16.40;92.50;;;;;;5071237;28;19913;-80
2022/04/16 14:18:59;;;;;;;;;;;16.60;95.30;;;;;;5039724;28;19978;-76
2022/04/16 14:21:26;;;;;;;;;;;17.00;90.80;;;;;;5043033;28;20251;-75
2022/04/16 14:23:52;;;;;;;;;;;17.20;90.60;;;;;;5077482;28;19912;-75
2022/04/16 14:26:18;;;;;;;;;;;17.30;93.00;;;;;;5070088;28;19920;-76
2022/04/16 14:28:43;;;;;;;;;;;17.40;91.80;;;;;;5071405;28;19993;-75
2022/04/16 14:31:10;;;;;;;;;;;17.40;93.40;;;;;;5055133;28;19917;-74
2022/04/16 14:33:38;;;;;;;;;;;17.20;90.50;;;;;;5072335;28;19934;-75
2022/04/16 14:36:07;;;;;;;;;;;17.10;90.60;;;;;;5045749;28;19961;-75
2022/04/16 14:38:35;;;;;;;;;;;17.40;90.30;;;;;;5069508;28;19924;-76
2022/04/16 14:41:09;;;;;;;;;;;17.30;91.40;;;;;;5068930;28;20322;-75
2022/04/16 14:43:59;;;;;;;;;;;17.40;92.10;;;;;;5070208;28;19965;-76
2022/04/16 14:46:25;;;;;;;;;;;17.40;90.40;;;;;;5039681;28;19913;-74
2022/04/16 14:48:53;;;;;;;;;;;17.70;87.50;;;;;;5066617;28;20275;-76